sensor_id;sensor_type;location;lat;lon;timestamp;temperature;humidity
40253;DHT22;25972;51.854;4.534;2023-04-24T00:00:11;9.80;99.90
40253;DHT22;25972;51.854;4.534;2023-04-24T00:02:41;9.80;99.90
40253;DHT22;25972;51.854;4.534;2023-04-24T00:05:12;9.80;99.90
40253;DHT22;25972;51.854;4.534;2023-04-24T00:07:39;9.80;99.90
40253;DHT22;25972;51.854;4.534;2023-04-24T00:10:06;9.90;99.90
40253;DHT22;25972;51.854;4.534;2023-04-24T00:12:33;9.80;99.90
40253;DHT22;25972;51.854;4.534;2023-04-24T00:14:58;9.80;99.90
40253;DHT22;25972;51.854;4.534;2023-04-24T00:17:25;9.80;99.90
40253;DHT22;25972;51.854;4.534;2023-04-24T00:19:51;9.90;99.90
40253;DHT22;25972;51.854;4.534;2023-04-24T00:22:17;9.90;99.90
40253;DHT22;25972;51.854;4.534;2023-04-24T00:24:43;9.80;99.90
40253;DHT22;25972;51.854;4.534;2023-04-24T00:27:09;9.90;99.90
40253;DHT22;25972;51.854;4.534;2023-04-24T00:29:35;9.80;99.90
40253;DHT22;25972;51.854;4.534;2023-04-24T00:32:01;9.90;99.90
40253;DHT22;25972;51.854;4.534;2023-04-24T00:34:26;9.80;99.90
40253;DHT22;25972;51.854;4.534;2023-04-24T00:36:52;9.90;99.90
40253;DHT22;25972;51.854;4.534;2023-04-24T00:39:19;10.00;99.90
40253;DHT22;25972;51.854;4.534;2023-04-24T00:41:45;9.90;99.90
40253;DHT22;25972;51.854;4.534;2023-04-24T00:44:11;9.90;99.90
40253;DHT22;25972;51.854;4.534;2023-04-24T00:46:38;9.80;99.90
40253;DHT22;25972;51.854;4.534;2023-04-24T00:49:04;9.90;99.90
40253;DHT22;25972;51.854;4.534;2023-04-24T00:51:32;9.90;99.90
40253;DHT22;25972;51.854;4.534;2023-04-24T00:53:58;9.80;99.90
40253;DHT22;25972;51.854;4.534;2023-04-24T00:56:25;9.90;99.90
40253;DHT22;25972;51.854;4.534;2023-04-24T00:58:51;9.90;99.90
40253;DHT22;25972;51.854;4.534;2023-04-24T01:01:18;9.80;99.90
40253;DHT22;25972;51.854;4.534;2023-04-24T01:03:46;9.80;99.90
40253;DHT22;25972;51.854;4.534;2023-04-24T01:06:12;9.80;99.90
40253;DHT22;25972;51.854;4.534;2023-04-24T01:08:40;9.80;99.90
40253;DHT22;25972;51.854;4.534;2023-04-24T01:11:07;9.80;99.90
40253;DHT22;25972;51.854;4.534;2023-04-24T01:13:33;9.70;99.90
40253;DHT22;25972;51.854;4.534;2023-04-24T01:15:59;9.80;99.90
40253;DHT22;25972;51.854;4.534;2023-04-24T01:18:26;9.80;99.90
40253;DHT22;25972;51.854;4.534;2023-04-24T01:20:55;9.80;99.90
40253;DHT22;25972;51.854;4.534;2023-04-24T01:23:23;9.80;99.90
40253;DHT22;25972;51.854;4.534;2023-04-24T01:25:50;9.70;99.90
40253;DHT22;25972;51.854;4.534;2023-04-24T01:28:18;9.80;99.90
40253;DHT22;25972;51.854;4.534;2023-04-24T01:30:44;9.80;99.90
40253;DHT22;25972;51.854;4.534;2023-04-24T01:33:10;9.80;99.90
40253;DHT22;25972;51.854;4.534;2023-04-24T01:35:37;9.80;99.90
40253;DHT22;25972;51.854;4.534;2023-04-24T01:38:03;9.70;99.90
40253;DHT22;25972;51.854;4.534;2023-04-24T01:40:32;9.80;99.90
40253;DHT22;25972;51.854;4.534;2023-04-24T01:42:58;9.80;99.90
40253;DHT22;25972;51.854;4.534;2023-04-24T01:45:25;9.80;99.90
40253;DHT22;25972;51.854;4.534;2023-04-24T01:47:51;9.80;99.90
40253;DHT22;25972;51.854;4.534;2023-04-24T01:50:17;9.80;99.90
40253;DHT22;25972;51.854;4.534;2023-04-24T01:52:43;9.80;99.90
40253;DHT22;25972;51.854;4.534;2023-04-24T01:55:10;9.80;99.90
40253;DHT22;25972;51.854;4.534;2023-04-24T01:57:38;9.90;99.90
40253;DHT22;25972;51.854;4.534;2023-04-24T02:00:04;9.80;99.90
40253;DHT22;25972;51.854;4.534;2023-04-24T02:02:41;9.80;99.90
40253;DHT22;25972;51.854;4.534;2023-04-24T02:05:08;9.90;99.90
40253;DHT22;25972;51.854;4.534;2023-04-24T02:07:35;9.90;99.90
40253;DHT22;25972;51.854;4.534;2023-04-24T02:10:02;9.90;99.90
40253;DHT22;25972;51.854;4.534;2023-04-24T02:12:29;9.80;99.90
40253;DHT22;25972;51.854;4.534;2023-04-24T02:14:55;9.80;99.90
40253;DHT22;25972;51.854;4.534;2023-04-24T02:17:21;9.80;99.90
40253;DHT22;25972;51.854;4.534;2023-04-24T02:19:48;9.80;99.90
40253;DHT22;25972;51.854;4.534;2023-04-24T02:22:14;9.80;99.90
40253;DHT22;25972;51.854;4.534;2023-04-24T02:24:40;9.80;99.90
40253;DHT22;25972;51.854;4.534;2023-04-24T02:27:06;9.80;99.90
40253;DHT22;25972;51.854;4.534;2023-04-24T02:29:32;9.80;99.90
40253;DHT22;25972;51.854;4.534;2023-04-24T02:31:57;9.90;99.90
40253;DHT22;25972;51.854;4.534;2023-04-24T02:34:23;9.80;99.90
40253;DHT22;25972;51.854;4.534;2023-04-24T02:36:49;9.80;99.90
40253;DHT22;25972;51.854;4.534;2023-04-24T02:39:15;9.70;99.90
40253;DHT22;25972;51.854;4.534;2023-04-24T02:41:44;9.70;99.90
40253;DHT22;25972;51.854;4.534;2023-04-24T02:44:10;9.70;99.90
40253;DHT22;25972;51.854;4.534;2023-04-24T02:46:36;9.80;99.90
40253;DHT22;25972;51.854;4.534;2023-04-24T02:49:02;9.80;99.90
40253;DHT22;25972;51.854;4.534;2023-04-24T02:51:28;9.80;99.90
40253;DHT22;25972;51.854;4.534;2023-04-24T02:53:55;9.80;99.90
40253;DHT22;25972;51.854;4.534;2023-04-24T02:56:21;9.80;99.90
40253;DHT22;25972;51.854;4.534;2023-04-24T02:58:47;9.70;99.90
40253;DHT22;25972;51.854;4.534;2023-04-24T03:01:12;9.80;99.90
40253;DHT22;25972;51.854;4.534;2023-04-24T03:03:39;9.70;99.90
40253;DHT22;25972;51.854;4.534;2023-04-24T03:06:05;9.70;99.90
40253;DHT22;25972;51.854;4.534;2023-04-24T03:08:34;9.70;99.90
40253;DHT22;25972;51.854;4.534;2023-04-24T03:11:00;9.50;99.90
40253;DHT22;25972;51.854;4.534;2023-04-24T03:13:26;9.60;99.90
40253;DHT22;25972;51.854;4.534;2023-04-24T03:15:52;9.60;99.90
40253;DHT22;25972;51.854;4.534;2023-04-24T03:18:19;9.60;99.90
40253;DHT22;25972;51.854;4.534;2023-04-24T03:20:47;9.50;99.90
40253;DHT22;25972;51.854;4.534;2023-04-24T03:23:14;9.50;99.90
40253;DHT22;25972;51.854;4.534;2023-04-24T03:25:39;9.60;99.90
40253;DHT22;25972;51.854;4.534;2023-04-24T03:28:08;9.60;99.90
40253;DHT22;25972;51.854;4.534;2023-04-24T03:30:41;9.50;99.90
40253;DHT22;25972;51.854;4.534;2023-04-24T03:33:07;9.50;99.90
40253;DHT22;25972;51.854;4.534;2023-04-24T03:35:39;9.40;99.90
40253;DHT22;25972;51.854;4.534;2023-04-24T03:38:09;9.40;99.90
40253;DHT22;25972;51.854;4.534;2023-04-24T03:40:41;9.40;99.90
40253;DHT22;25972;51.854;4.534;2023-04-24T03:43:21;9.40;99.90
40253;DHT22;25972;51.854;4.534;2023-04-24T03:45:47;9.40;99.90
40253;DHT22;25972;51.854;4.534;2023-04-24T03:48:15;9.30;99.90
40253;DHT22;25972;51.854;4.534;2023-04-24T03:50:41;9.30;99.90
40253;DHT22;25972;51.854;4.534;2023-04-24T03:53:09;9.40;99.90
40253;DHT22;25972;51.854;4.534;2023-04-24T03:55:38;9.30;99.90
40253;DHT22;25972;51.854;4.534;2023-04-24T03:58:04;9.40;99.90
40253;DHT22;25972;51.854;4.534;2023-04-24T04:00:31;9.30;99.90
40253;DHT22;25972;51.854;4.534;2023-04-24T04:03:17;9.40;99.90
40253;DHT22;25972;51.854;4.534;2023-04-24T04:05:43;9.50;99.90
40253;DHT22;25972;51.854;4.534;2023-04-24T04:08:09;9.50;99.90
40253;DHT22;25972;51.854;4.534;2023-04-24T04:10:35;9.50;99.90
40253;DHT22;25972;51.854;4.534;2023-04-24T04:13:04;9.50;99.90
40253;DHT22;25972;51.854;4.534;2023-04-24T04:15:30;9.60;99.90
40253;DHT22;25972;51.854;4.534;2023-04-24T04:17:56;9.50;99.90
40253;DHT22;25972;51.854;4.534;2023-04-24T04:20:22;9.60;99.90
40253;DHT22;25972;51.854;4.534;2023-04-24T04:22:48;9.60;99.90
40253;DHT22;25972;51.854;4.534;2023-04-24T04:25:20;9.70;99.90
40253;DHT22;25972;51.854;4.534;2023-04-24T04:27:46;9.60;99.90
40253;DHT22;25972;51.854;4.534;2023-04-24T04:30:14;9.60;99.90
40253;DHT22;25972;51.854;4.534;2023-04-24T04:32:49;9.70;99.90
40253;DHT22;25972;51.854;4.534;2023-04-24T04:35:15;9.50;99.90
40253;DHT22;25972;51.854;4.534;2023-04-24T04:37:40;9.60;99.90
40253;DHT22;25972;51.854;4.534;2023-04-24T04:40:36;9.60;99.90
40253;DHT22;25972;51.854;4.534;2023-04-24T04:43:04;9.60;99.90
40253;DHT22;25972;51.854;4.534;2023-04-24T04:45:37;9.60;99.90
40253;DHT22;25972;51.854;4.534;2023-04-24T04:48:34;9.50;99.90
40253;DHT22;25972;51.854;4.534;2023-04-24T04:51:04;9.40;99.90
40253;DHT22;25972;51.854;4.534;2023-04-24T04:53:30;9.40;99.90
40253;DHT22;25972;51.854;4.534;2023-04-24T04:55:56;9.50;99.90
40253;DHT22;25972;51.854;4.534;2023-04-24T04:58:26;9.40;99.90
40253;DHT22;25972;51.854;4.534;2023-04-24T05:00:56;9.40;99.90
40253;DHT22;25972;51.854;4.534;2023-04-24T05:03:36;9.20;99.90
40253;DHT22;25972;51.854;4.534;2023-04-24T05:06:06;9.30;99.90
40253;DHT22;25972;51.854;4.534;2023-04-24T05:08:35;9.20;99.90
40253;DHT22;25972;51.854;4.534;2023-04-24T05:11:02;9.10;99.90
40253;DHT22;25972;51.854;4.534;2023-04-24T05:13:29;9.10;99.90
40253;DHT22;25972;51.854;4.534;2023-04-24T05:15:55;9.00;99.90
40253;DHT22;25972;51.854;4.534;2023-04-24T05:18:21;9.20;99.90
40253;DHT22;25972;51.854;4.534;2023-04-24T05:20:48;9.00;99.90
40253;DHT22;25972;51.854;4.534;2023-04-24T05:23:13;9.10;99.90
40253;DHT22;25972;51.854;4.534;2023-04-24T05:25:42;9.00;99.90
40253;DHT22;25972;51.854;4.534;2023-04-24T05:28:11;9.00;99.90
40253;DHT22;25972;51.854;4.534;2023-04-24T05:30:37;9.00;99.90
40253;DHT22;25972;51.854;4.534;2023-04-24T05:33:03;9.00;99.90
40253;DHT22;25972;51.854;4.534;2023-04-24T05:35:32;9.00;99.90
40253;DHT22;25972;51.854;4.534;2023-04-24T05:37:57;9.00;99.90
40253;DHT22;25972;51.854;4.534;2023-04-24T05:40:23;8.90;99.90
40253;DHT22;25972;51.854;4.534;2023-04-24T05:42:50;8.90;99.90
40253;DHT22;25972;51.854;4.534;2023-04-24T05:45:16;8.90;99.90
40253;DHT22;25972;51.854;4.534;2023-04-24T05:47:43;8.80;99.90
40253;DHT22;25972;51.854;4.534;2023-04-24T05:50:11;8.80;99.90
40253;DHT22;25972;51.854;4.534;2023-04-24T05:52:36;8.80;99.90
40253;DHT22;25972;51.854;4.534;2023-04-24T05:55:08;8.80;99.90
40253;DHT22;25972;51.854;4.534;2023-04-24T05:57:37;8.80;99.90
40253;DHT22;25972;51.854;4.534;2023-04-24T06:00:04;8.90;99.90
40253;DHT22;25972;51.854;4.534;2023-04-24T06:02:39;8.80;99.90
40253;DHT22;25972;51.854;4.534;2023-04-24T06:05:07;8.90;99.90
40253;DHT22;25972;51.854;4.534;2023-04-24T06:07:33;8.90;99.90
40253;DHT22;25972;51.854;4.534;2023-04-24T06:10:02;8.90;99.90
40253;DHT22;25972;51.854;4.534;2023-04-24T06:12:33;8.90;99.90
40253;DHT22;25972;51.854;4.534;2023-04-24T06:15:05;8.80;99.90
40253;DHT22;25972;51.854;4.534;2023-04-24T06:17:55;8.90;99.90
40253;DHT22;25972;51.854;4.534;2023-04-24T06:20:21;8.90;99.90
40253;DHT22;25972;51.854;4.534;2023-04-24T06:22:47;8.90;99.90
40253;DHT22;25972;51.854;4.534;2023-04-24T06:25:13;8.90;99.90
40253;DHT22;25972;51.854;4.534;2023-04-24T06:27:38;8.90;99.90
40253;DHT22;25972;51.854;4.534;2023-04-24T06:30:05;8.90;99.90
40253;DHT22;25972;51.854;4.534;2023-04-24T06:32:32;8.80;99.90
40253;DHT22;25972;51.854;4.534;2023-04-24T06:34:59;8.80;99.90
40253;DHT22;25972;51.854;4.534;2023-04-24T06:37:24;8.90;99.90
40253;DHT22;25972;51.854;4.534;2023-04-24T06:39:51;8.90;99.90
40253;DHT22;25972;51.854;4.534;2023-04-24T06:42:17;8.90;99.90
40253;DHT22;25972;51.854;4.534;2023-04-24T06:44:43;8.90;99.90
40253;DHT22;25972;51.854;4.534;2023-04-24T06:47:10;8.90;99.90
40253;DHT22;25972;51.854;4.534;2023-04-24T06:49:38;8.90;99.90
40253;DHT22;25972;51.854;4.534;2023-04-24T06:52:04;8.90;99.90
40253;DHT22;25972;51.854;4.534;2023-04-24T06:54:30;8.90;99.90
40253;DHT22;25972;51.854;4.534;2023-04-24T06:56:56;8.90;99.90
40253;DHT22;25972;51.854;4.534;2023-04-24T06:59:29;8.90;99.90
40253;DHT22;25972;51.854;4.534;2023-04-24T07:01:56;8.90;99.90
40253;DHT22;25972;51.854;4.534;2023-04-24T07:04:22;9.00;99.90
40253;DHT22;25972;51.854;4.534;2023-04-24T07:06:50;9.00;99.90
40253;DHT22;25972;51.854;4.534;2023-04-24T07:09:17;9.00;99.90
40253;DHT22;25972;51.854;4.534;2023-04-24T07:11:47;9.10;99.90
40253;DHT22;25972;51.854;4.534;2023-04-24T07:14:13;9.10;99.90
40253;DHT22;25972;51.854;4.534;2023-04-24T07:16:39;9.10;99.90
40253;DHT22;25972;51.854;4.534;2023-04-24T07:19:05;9.10;99.90
40253;DHT22;25972;51.854;4.534;2023-04-24T07:21:31;9.10;99.90
40253;DHT22;25972;51.854;4.534;2023-04-24T07:23:58;9.10;99.90
40253;DHT22;25972;51.854;4.534;2023-04-24T07:26:24;9.10;99.90
40253;DHT22;25972;51.854;4.534;2023-04-24T07:28:50;9.10;99.90
40253;DHT22;25972;51.854;4.534;2023-04-24T07:31:16;9.10;99.90
40253;DHT22;25972;51.854;4.534;2023-04-24T07:33:42;9.10;99.90
40253;DHT22;25972;51.854;4.534;2023-04-24T07:36:07;9.00;99.90
40253;DHT22;25972;51.854;4.534;2023-04-24T07:38:33;9.00;99.90
40253;DHT22;25972;51.854;4.534;2023-04-24T07:40:59;9.00;99.90
40253;DHT22;25972;51.854;4.534;2023-04-24T07:43:25;9.00;99.90
40253;DHT22;25972;51.854;4.534;2023-04-24T07:45:52;9.00;99.90
40253;DHT22;25972;51.854;4.534;2023-04-24T07:48:18;9.00;99.90
40253;DHT22;25972;51.854;4.534;2023-04-24T07:50:47;9.00;99.90
40253;DHT22;25972;51.854;4.534;2023-04-24T07:53:12;9.00;99.90
40253;DHT22;25972;51.854;4.534;2023-04-24T07:55:38;9.00;99.90
40253;DHT22;25972;51.854;4.534;2023-04-24T07:58:04;9.00;99.90
40253;DHT22;25972;51.854;4.534;2023-04-24T08:00:30;8.90;99.90
40253;DHT22;25972;51.854;4.534;2023-04-24T08:02:56;8.90;99.90
40253;DHT22;25972;51.854;4.534;2023-04-24T08:05:21;8.80;99.90
40253;DHT22;25972;51.854;4.534;2023-04-24T08:07:47;8.80;99.90
40253;DHT22;25972;51.854;4.534;2023-04-24T08:10:15;8.80;99.90
40253;DHT22;25972;51.854;4.534;2023-04-24T08:12:41;8.80;99.90
40253;DHT22;25972;51.854;4.534;2023-04-24T08:15:07;8.80;99.90
40253;DHT22;25972;51.854;4.534;2023-04-24T08:17:34;8.90;99.90
40253;DHT22;25972;51.854;4.534;2023-04-24T08:20:01;8.80;99.90
40253;DHT22;25972;51.854;4.534;2023-04-24T08:22:28;8.80;99.90
40253;DHT22;25972;51.854;4.534;2023-04-24T08:24:54;8.80;99.90
40253;DHT22;25972;51.854;4.534;2023-04-24T08:27:20;8.90;99.90
40253;DHT22;25972;51.854;4.534;2023-04-24T08:29:46;8.90;99.90
40253;DHT22;25972;51.854;4.534;2023-04-24T08:32:12;9.00;99.90
40253;DHT22;25972;51.854;4.534;2023-04-24T08:34:38;9.00;99.90
40253;DHT22;25972;51.854;4.534;2023-04-24T08:37:03;9.10;99.90
40253;DHT22;25972;51.854;4.534;2023-04-24T08:39:29;9.10;99.90
40253;DHT22;25972;51.854;4.534;2023-04-24T08:41:56;9.10;99.90
40253;DHT22;25972;51.854;4.534;2023-04-24T08:44:21;9.10;99.90
40253;DHT22;25972;51.854;4.534;2023-04-24T08:46:48;9.10;99.90
40253;DHT22;25972;51.854;4.534;2023-04-24T08:49:15;9.00;99.90
40253;DHT22;25972;51.854;4.534;2023-04-24T08:51:44;9.00;99.90
40253;DHT22;25972;51.854;4.534;2023-04-24T08:54:12;9.00;99.90
40253;DHT22;25972;51.854;4.534;2023-04-24T08:56:38;9.00;99.90
40253;DHT22;25972;51.854;4.534;2023-04-24T08:59:06;9.00;99.90
40253;DHT22;25972;51.854;4.534;2023-04-24T09:01:33;9.00;99.90
40253;DHT22;25972;51.854;4.534;2023-04-24T09:04:03;9.00;99.90
40253;DHT22;25972;51.854;4.534;2023-04-24T09:06:30;9.00;99.90
40253;DHT22;25972;51.854;4.534;2023-04-24T09:08:59;9.10;99.90
40253;DHT22;25972;51.854;4.534;2023-04-24T09:11:26;9.10;99.90
40253;DHT22;25972;51.854;4.534;2023-04-24T09:13:54;9.20;99.90
40253;DHT22;25972;51.854;4.534;2023-04-24T09:16:20;9.20;99.90
40253;DHT22;25972;51.854;4.534;2023-04-24T09:18:46;9.20;99.90
40253;DHT22;25972;51.854;4.534;2023-04-24T09:21:12;9.20;99.90
40253;DHT22;25972;51.854;4.534;2023-04-24T09:23:39;9.10;99.90
40253;DHT22;25972;51.854;4.534;2023-04-24T09:26:04;9.00;99.90
40253;DHT22;25972;51.854;4.534;2023-04-24T09:28:34;8.90;99.90
40253;DHT22;25972;51.854;4.534;2023-04-24T09:31:14;9.00;99.90
40253;DHT22;25972;51.854;4.534;2023-04-24T09:34:03;9.10;99.90
40253;DHT22;25972;51.854;4.534;2023-04-24T09:36:33;9.30;99.90
40253;DHT22;25972;51.854;4.534;2023-04-24T09:39:00;9.40;99.90
40253;DHT22;25972;51.854;4.534;2023-04-24T09:41:27;9.60;99.90
40253;DHT22;25972;51.854;4.534;2023-04-24T09:43:55;9.60;99.90
40253;DHT22;25972;51.854;4.534;2023-04-24T09:46:28;9.60;99.90
40253;DHT22;25972;51.854;4.534;2023-04-24T09:48:55;9.60;99.90
40253;DHT22;25972;51.854;4.534;2023-04-24T09:51:34;9.60;99.90
40253;DHT22;25972;51.854;4.534;2023-04-24T09:54:01;9.70;99.90
40253;DHT22;25972;51.854;4.534;2023-04-24T09:56:27;9.80;99.90
40253;DHT22;25972;51.854;4.534;2023-04-24T09:58:54;9.80;99.90
40253;DHT22;25972;51.854;4.534;2023-04-24T10:01:32;9.90;99.90
40253;DHT22;25972;51.854;4.534;2023-04-24T10:03:58;10.20;99.90
40253;DHT22;25972;51.854;4.534;2023-04-24T10:06:33;10.30;99.90
40253;DHT22;25972;51.854;4.534;2023-04-24T10:08:59;10.30;99.90
40253;DHT22;25972;51.854;4.534;2023-04-24T10:11:28;10.40;99.90
40253;DHT22;25972;51.854;4.534;2023-04-24T10:13:55;10.50;99.90
40253;DHT22;25972;51.854;4.534;2023-04-24T10:16:23;10.60;99.90
40253;DHT22;25972;51.854;4.534;2023-04-24T10:18:49;10.70;99.90
40253;DHT22;25972;51.854;4.534;2023-04-24T10:21:16;10.70;99.90
40253;DHT22;25972;51.854;4.534;2023-04-24T10:23:43;10.50;99.90
40253;DHT22;25972;51.854;4.534;2023-04-24T10:26:09;10.30;99.90
40253;DHT22;25972;51.854;4.534;2023-04-24T10:28:36;10.20;99.90
40253;DHT22;25972;51.854;4.534;2023-04-24T10:31:02;10.10;99.90
40253;DHT22;25972;51.854;4.534;2023-04-24T10:33:29;10.10;99.90
40253;DHT22;25972;51.854;4.534;2023-04-24T10:35:56;9.90;99.90
40253;DHT22;25972;51.854;4.534;2023-04-24T10:38:28;9.80;99.90
40253;DHT22;25972;51.854;4.534;2023-04-24T10:41:06;9.70;99.90
40253;DHT22;25972;51.854;4.534;2023-04-24T10:43:33;9.70;99.90
40253;DHT22;25972;51.854;4.534;2023-04-24T10:46:04;9.80;99.90
40253;DHT22;25972;51.854;4.534;2023-04-24T10:48:31;9.90;99.90
40253;DHT22;25972;51.854;4.534;2023-04-24T10:50:58;10.10;99.90
40253;DHT22;25972;51.854;4.534;2023-04-24T10:53:28;10.30;99.90
40253;DHT22;25972;51.854;4.534;2023-04-24T10:56:05;10.50;99.90
40253;DHT22;25972;51.854;4.534;2023-04-24T10:58:41;10.60;99.90
40253;DHT22;25972;51.854;4.534;2023-04-24T11:01:38;10.70;99.90
40253;DHT22;25972;51.854;4.534;2023-04-24T11:04:04;10.80;99.90
40253;DHT22;25972;51.854;4.534;2023-04-24T11:06:30;10.80;99.90
40253;DHT22;25972;51.854;4.534;2023-04-24T11:09:08;10.90;99.90
40253;DHT22;25972;51.854;4.534;2023-04-24T11:11:36;11.00;99.90
40253;DHT22;25972;51.854;4.534;2023-04-24T11:14:07;11.10;99.90
40253;DHT22;25972;51.854;4.534;2023-04-24T11:16:44;11.10;99.90
40253;DHT22;25972;51.854;4.534;2023-04-24T11:19:20;10.80;99.90
40253;DHT22;25972;51.854;4.534;2023-04-24T11:21:54;10.50;99.90
40253;DHT22;25972;51.854;4.534;2023-04-24T11:24:39;10.20;99.90
40253;DHT22;25972;51.854;4.534;2023-04-24T11:32:24;10.00;99.90
40253;DHT22;25972;51.854;4.534;2023-04-24T11:34:55;10.00;99.90
40253;DHT22;25972;51.854;4.534;2023-04-24T11:37:23;10.00;99.90
40253;DHT22;25972;51.854;4.534;2023-04-24T11:39:54;10.00;99.90
40253;DHT22;25972;51.854;4.534;2023-04-24T11:42:21;10.00;99.90
40253;DHT22;25972;51.854;4.534;2023-04-24T11:44:49;10.20;99.90
40253;DHT22;25972;51.854;4.534;2023-04-24T11:47:15;10.40;99.90
40253;DHT22;25972;51.854;4.534;2023-04-24T11:49:41;10.60;99.90
40253;DHT22;25972;51.854;4.534;2023-04-24T11:52:07;10.80;99.90
40253;DHT22;25972;51.854;4.534;2023-04-24T11:54:33;10.80;99.90
40253;DHT22;25972;51.854;4.534;2023-04-24T11:56:59;10.90;99.90
40253;DHT22;25972;51.854;4.534;2023-04-24T11:59:25;11.20;99.90
40253;DHT22;25972;51.854;4.534;2023-04-24T12:01:51;11.30;99.90
40253;DHT22;25972;51.854;4.534;2023-04-24T12:04:18;11.40;99.90
40253;DHT22;25972;51.854;4.534;2023-04-24T12:07:01;11.40;99.90
40253;DHT22;25972;51.854;4.534;2023-04-24T12:09:27;11.70;99.90
40253;DHT22;25972;51.854;4.534;2023-04-24T12:11:56;12.00;99.90
40253;DHT22;25972;51.854;4.534;2023-04-24T12:14:23;12.00;99.90
40253;DHT22;25972;51.854;4.534;2023-04-24T12:16:50;12.00;99.90
40253;DHT22;25972;51.854;4.534;2023-04-24T12:19:22;11.80;99.90
40253;DHT22;25972;51.854;4.534;2023-04-24T12:22:05;11.70;99.90
40253;DHT22;25972;51.854;4.534;2023-04-24T12:24:31;11.50;99.90
40253;DHT22;25972;51.854;4.534;2023-04-24T12:26:58;11.40;99.90
40253;DHT22;25972;51.854;4.534;2023-04-24T12:29:24;11.40;99.90
40253;DHT22;25972;51.854;4.534;2023-04-24T12:31:51;11.40;99.90
40253;DHT22;25972;51.854;4.534;2023-04-24T12:34:21;11.50;99.90
40253;DHT22;25972;51.854;4.534;2023-04-24T12:36:48;11.50;99.90
40253;DHT22;25972;51.854;4.534;2023-04-24T12:39:20;11.50;99.90
40253;DHT22;25972;51.854;4.534;2023-04-24T12:41:54;11.70;99.90
40253;DHT22;25972;51.854;4.534;2023-04-24T12:44:28;11.90;99.90
40253;DHT22;25972;51.854;4.534;2023-04-24T12:46:54;12.10;99.90
40253;DHT22;25972;51.854;4.534;2023-04-24T12:49:20;12.20;99.90
40253;DHT22;25972;51.854;4.534;2023-04-24T12:51:45;12.20;99.90
40253;DHT22;25972;51.854;4.534;2023-04-24T12:54:11;12.10;99.90
40253;DHT22;25972;51.854;4.534;2023-04-24T12:56:37;12.10;99.90
40253;DHT22;25972;51.854;4.534;2023-04-24T12:59:05;12.00;99.90
40253;DHT22;25972;51.854;4.534;2023-04-24T13:01:31;11.80;99.90
40253;DHT22;25972;51.854;4.534;2023-04-24T13:03:56;11.70;99.90
40253;DHT22;25972;51.854;4.534;2023-04-24T13:06:22;11.60;99.90
40253;DHT22;25972;51.854;4.534;2023-04-24T13:08:48;11.50;99.90
40253;DHT22;25972;51.854;4.534;2023-04-24T13:11:14;11.40;99.90
40253;DHT22;25972;51.854;4.534;2023-04-24T13:13:40;11.40;99.90
40253;DHT22;25972;51.854;4.534;2023-04-24T13:16:06;11.50;99.90
40253;DHT22;25972;51.854;4.534;2023-04-24T13:18:31;11.60;99.90
40253;DHT22;25972;51.854;4.534;2023-04-24T13:20:57;11.60;99.90
40253;DHT22;25972;51.854;4.534;2023-04-24T13:23:23;11.50;99.90
40253;DHT22;25972;51.854;4.534;2023-04-24T13:25:49;11.40;99.90
40253;DHT22;25972;51.854;4.534;2023-04-24T13:28:15;11.30;99.90
40253;DHT22;25972;51.854;4.534;2023-04-24T13:30:40;11.20;99.90
40253;DHT22;25972;51.854;4.534;2023-04-24T13:33:06;11.00;99.90
40253;DHT22;25972;51.854;4.534;2023-04-24T13:35:32;10.90;99.90
40253;DHT22;25972;51.854;4.534;2023-04-24T13:37:58;10.70;99.90
40253;DHT22;25972;51.854;4.534;2023-04-24T13:40:27;10.40;99.90
40253;DHT22;25972;51.854;4.534;2023-04-24T13:42:53;10.20;99.90
40253;DHT22;25972;51.854;4.534;2023-04-24T13:45:18;10.10;99.90
40253;DHT22;25972;51.854;4.534;2023-04-24T13:47:44;10.20;99.90
40253;DHT22;25972;51.854;4.534;2023-04-24T13:50:11;10.20;99.90
40253;DHT22;25972;51.854;4.534;2023-04-24T13:52:36;10.30;99.90
40253;DHT22;25972;51.854;4.534;2023-04-24T13:55:02;10.40;99.90
40253;DHT22;25972;51.854;4.534;2023-04-24T13:57:28;10.50;99.90
40253;DHT22;25972;51.854;4.534;2023-04-24T13:59:54;10.50;99.90
40253;DHT22;25972;51.854;4.534;2023-04-24T14:02:21;10.50;99.90
40253;DHT22;25972;51.854;4.534;2023-04-24T14:04:47;10.60;99.90
40253;DHT22;25972;51.854;4.534;2023-04-24T14:07:13;10.80;99.90
40253;DHT22;25972;51.854;4.534;2023-04-24T14:09:39;10.80;99.90
40253;DHT22;25972;51.854;4.534;2023-04-24T14:12:06;10.80;99.90
40253;DHT22;25972;51.854;4.534;2023-04-24T14:14:32;10.80;99.90
40253;DHT22;25972;51.854;4.534;2023-04-24T14:16:58;10.70;99.90
40253;DHT22;25972;51.854;4.534;2023-04-24T14:19:24;10.60;99.90
40253;DHT22;25972;51.854;4.534;2023-04-24T14:21:49;10.40;99.90
40253;DHT22;25972;51.854;4.534;2023-04-24T14:24:15;10.30;99.90
40253;DHT22;25972;51.854;4.534;2023-04-24T14:26:41;10.40;99.90
40253;DHT22;25972;51.854;4.534;2023-04-24T14:29:08;10.40;99.90
40253;DHT22;25972;51.854;4.534;2023-04-24T14:31:34;10.70;99.90
40253;DHT22;25972;51.854;4.534;2023-04-24T14:34:00;10.80;99.90
40253;DHT22;25972;51.854;4.534;2023-04-24T14:36:26;10.90;99.90
40253;DHT22;25972;51.854;4.534;2023-04-24T14:38:52;10.90;99.90
40253;DHT22;25972;51.854;4.534;2023-04-24T14:41:18;10.90;99.90
40253;DHT22;25972;51.854;4.534;2023-04-24T14:43:43;11.00;99.90
40253;DHT22;25972;51.854;4.534;2023-04-24T14:46:10;10.90;99.90
40253;DHT22;25972;51.854;4.534;2023-04-24T14:48:36;10.80;99.90
40253;DHT22;25972;51.854;4.534;2023-04-24T14:51:02;10.80;99.90
40253;DHT22;25972;51.854;4.534;2023-04-24T14:53:28;10.80;99.90
40253;DHT22;25972;51.854;4.534;2023-04-24T14:55:53;10.80;99.90
40253;DHT22;25972;51.854;4.534;2023-04-24T14:58:19;10.90;99.90
40253;DHT22;25972;51.854;4.534;2023-04-24T15:00:45;10.90;99.90
40253;DHT22;25972;51.854;4.534;2023-04-24T15:03:11;10.90;99.90
40253;DHT22;25972;51.854;4.534;2023-04-24T15:05:37;10.90;99.90
40253;DHT22;25972;51.854;4.534;2023-04-24T15:08:02;11.00;99.90
40253;DHT22;25972;51.854;4.534;2023-04-24T15:10:28;11.00;99.90
40253;DHT22;25972;51.854;4.534;2023-04-24T15:12:55;11.20;99.90
40253;DHT22;25972;51.854;4.534;2023-04-24T15:15:21;11.20;99.90
40253;DHT22;25972;51.854;4.534;2023-04-24T15:17:47;11.40;99.90
40253;DHT22;25972;51.854;4.534;2023-04-24T15:20:12;11.40;99.90
40253;DHT22;25972;51.854;4.534;2023-04-24T15:22:38;11.30;99.90
40253;DHT22;25972;51.854;4.534;2023-04-24T15:25:04;11.40;99.90
40253;DHT22;25972;51.854;4.534;2023-04-24T15:27:41;11.40;99.90
40253;DHT22;25972;51.854;4.534;2023-04-24T15:30:08;11.30;99.90
40253;DHT22;25972;51.854;4.534;2023-04-24T15:32:33;11.10;99.90
40253;DHT22;25972;51.854;4.534;2023-04-24T15:34:59;11.00;99.90
40253;DHT22;25972;51.854;4.534;2023-04-24T15:37:25;11.00;99.90
40253;DHT22;25972;51.854;4.534;2023-04-24T15:39:51;10.90;99.90
40253;DHT22;25972;51.854;4.534;2023-04-24T15:42:17;10.80;99.90
40253;DHT22;25972;51.854;4.534;2023-04-24T15:44:42;10.80;99.90
40253;DHT22;25972;51.854;4.534;2023-04-24T15:47:08;10.80;99.90